sensor_id;sensor_type;location;lat;lon;timestamp;temperature;humidity
64689;DHT22;62504;46.070;14.492;2022-08-21T00:01:26;20.70;99.90
64689;DHT22;62504;46.070;14.492;2022-08-21T00:03:54;20.70;99.90
64689;DHT22;62504;46.070;14.492;2022-08-21T00:06:20;20.60;99.90
64689;DHT22;62504;46.070;14.492;2022-08-21T00:08:46;20.60;99.90
64689;DHT22;62504;46.070;14.492;2022-08-21T00:11:15;20.60;99.90
64689;DHT22;62504;46.070;14.492;2022-08-21T00:13:41;20.60;99.90
64689;DHT22;62504;46.070;14.492;2022-08-21T00:16:06;20.60;99.90
64689;DHT22;62504;46.070;14.492;2022-08-21T00:18:33;20.60;99.90
64689;DHT22;62504;46.070;14.492;2022-08-21T00:20:58;20.60;99.90
64689;DHT22;62504;46.070;14.492;2022-08-21T00:23:24;20.60;99.90
64689;DHT22;62504;46.070;14.492;2022-08-21T00:25:50;20.50;99.90
64689;DHT22;62504;46.070;14.492;2022-08-21T00:28:16;20.40;99.90
64689;DHT22;62504;46.070;14.492;2022-08-21T00:30:42;20.30;99.90
64689;DHT22;62504;46.070;14.492;2022-08-21T00:33:09;20.10;99.90
64689;DHT22;62504;46.070;14.492;2022-08-21T00:35:38;20.30;99.90
64689;DHT22;62504;46.070;14.492;2022-08-21T00:38:06;20.40;99.90
64689;DHT22;62504;46.070;14.492;2022-08-21T00:40:38;20.40;99.90
64689;DHT22;62504;46.070;14.492;2022-08-21T00:43:06;20.30;99.90
64689;DHT22;62504;46.070;14.492;2022-08-21T00:45:32;20.40;99.90
64689;DHT22;62504;46.070;14.492;2022-08-21T00:47:58;20.40;99.90
64689;DHT22;62504;46.070;14.492;2022-08-21T00:50:28;20.30;99.90
64689;DHT22;62504;46.070;14.492;2022-08-21T00:52:55;20.30;99.90
64689;DHT22;62504;46.070;14.492;2022-08-21T00:55:22;20.30;99.90
64689;DHT22;62504;46.070;14.492;2022-08-21T00:57:50;20.20;99.90
64689;DHT22;62504;46.070;14.492;2022-08-21T01:00:30;20.10;99.90
64689;DHT22;62504;46.070;14.492;2022-08-21T01:02:57;20.20;99.90
64689;DHT22;62504;46.070;14.492;2022-08-21T01:05:23;19.60;99.90
64689;DHT22;62504;46.070;14.492;2022-08-21T01:07:49;19.60;99.90
64689;DHT22;62504;46.070;14.492;2022-08-21T01:10:16;19.70;99.90
64689;DHT22;62504;46.070;14.492;2022-08-21T01:12:43;19.70;99.90
64689;DHT22;62504;46.070;14.492;2022-08-21T01:15:10;19.10;99.90
64689;DHT22;62504;46.070;14.492;2022-08-21T01:17:37;19.10;99.90
64689;DHT22;62504;46.070;14.492;2022-08-21T01:20:07;19.10;99.90
64689;DHT22;62504;46.070;14.492;2022-08-21T01:22:33;18.90;99.90
64689;DHT22;62504;46.070;14.492;2022-08-21T01:24:59;18.70;99.90
64689;DHT22;62504;46.070;14.492;2022-08-21T01:27:24;18.90;99.90
64689;DHT22;62504;46.070;14.492;2022-08-21T01:29:54;18.90;99.90
64689;DHT22;62504;46.070;14.492;2022-08-21T01:32:22;18.90;99.90
64689;DHT22;62504;46.070;14.492;2022-08-21T01:34:50;19.00;99.90
64689;DHT22;62504;46.070;14.492;2022-08-21T01:37:17;19.20;99.90
64689;DHT22;62504;46.070;14.492;2022-08-21T01:39:43;19.40;99.90
64689;DHT22;62504;46.070;14.492;2022-08-21T01:42:10;19.60;99.90
64689;DHT22;62504;46.070;14.492;2022-08-21T01:44:35;19.70;99.90
64689;DHT22;62504;46.070;14.492;2022-08-21T01:47:04;19.80;99.90
64689;DHT22;62504;46.070;14.492;2022-08-21T01:49:30;19.70;99.90
64689;DHT22;62504;46.070;14.492;2022-08-21T01:51:56;19.40;99.90
64689;DHT22;62504;46.070;14.492;2022-08-21T01:54:22;19.60;99.90
64689;DHT22;62504;46.070;14.492;2022-08-21T01:56:50;19.60;99.90
64689;DHT22;62504;46.070;14.492;2022-08-21T01:59:16;19.70;99.90
64689;DHT22;62504;46.070;14.492;2022-08-21T02:01:42;19.80;99.90
64689;DHT22;62504;46.070;14.492;2022-08-21T02:04:09;19.70;99.90
64689;DHT22;62504;46.070;14.492;2022-08-21T02:06:36;19.60;99.90
64689;DHT22;62504;46.070;14.492;2022-08-21T02:09:03;19.60;99.90
64689;DHT22;62504;46.070;14.492;2022-08-21T02:11:29;19.70;99.90
64689;DHT22;62504;46.070;14.492;2022-08-21T02:13:55;19.70;99.90
64689;DHT22;62504;46.070;14.492;2022-08-21T02:16:21;19.70;99.90
64689;DHT22;62504;46.070;14.492;2022-08-21T02:18:46;19.60;99.90
64689;DHT22;62504;46.070;14.492;2022-08-21T02:21:12;19.50;99.90
64689;DHT22;62504;46.070;14.492;2022-08-21T02:23:38;19.60;99.90
64689;DHT22;62504;46.070;14.492;2022-08-21T02:26:05;19.60;99.90
64689;DHT22;62504;46.070;14.492;2022-08-21T02:28:32;19.50;99.90
64689;DHT22;62504;46.070;14.492;2022-08-21T02:30:58;19.30;99.90
64689;DHT22;62504;46.070;14.492;2022-08-21T02:33:24;19.30;99.90
64689;DHT22;62504;46.070;14.492;2022-08-21T02:35:51;19.50;99.90
64689;DHT22;62504;46.070;14.492;2022-08-21T02:38:22;19.00;99.90
64689;DHT22;62504;46.070;14.492;2022-08-21T02:40:50;19.10;99.90
64689;DHT22;62504;46.070;14.492;2022-08-21T02:43:17;19.30;99.90
64689;DHT22;62504;46.070;14.492;2022-08-21T02:45:43;19.40;99.90
64689;DHT22;62504;46.070;14.492;2022-08-21T02:48:11;19.20;99.90
64689;DHT22;62504;46.070;14.492;2022-08-21T02:50:44;19.00;99.90
64689;DHT22;62504;46.070;14.492;2022-08-21T02:53:13;19.20;99.90
64689;DHT22;62504;46.070;14.492;2022-08-21T02:55:43;19.40;99.90
64689;DHT22;62504;46.070;14.492;2022-08-21T02:58:10;19.50;99.90
64689;DHT22;62504;46.070;14.492;2022-08-21T03:00:37;19.50;99.90
64689;DHT22;62504;46.070;14.492;2022-08-21T03:03:04;19.60;99.90
64689;DHT22;62504;46.070;14.492;2022-08-21T03:05:30;19.40;99.90
64689;DHT22;62504;46.070;14.492;2022-08-21T03:07:57;19.70;99.90
64689;DHT22;62504;46.070;14.492;2022-08-21T03:10:24;19.10;99.90
64689;DHT22;62504;46.070;14.492;2022-08-21T03:12:50;18.80;99.90
64689;DHT22;62504;46.070;14.492;2022-08-21T03:15:20;19.00;99.90
64689;DHT22;62504;46.070;14.492;2022-08-21T03:17:46;19.20;99.90
64689;DHT22;62504;46.070;14.492;2022-08-21T03:20:14;19.40;99.90
64689;DHT22;62504;46.070;14.492;2022-08-21T03:22:40;19.30;99.90
64689;DHT22;62504;46.070;14.492;2022-08-21T03:25:07;19.50;99.90
64689;DHT22;62504;46.070;14.492;2022-08-21T03:27:34;19.60;99.90
64689;DHT22;62504;46.070;14.492;2022-08-21T03:30:00;19.60;99.90
64689;DHT22;62504;46.070;14.492;2022-08-21T03:32:25;19.60;99.90
64689;DHT22;62504;46.070;14.492;2022-08-21T03:34:51;19.50;99.90
64689;DHT22;62504;46.070;14.492;2022-08-21T03:37:17;19.50;99.90
64689;DHT22;62504;46.070;14.492;2022-08-21T03:39:44;19.50;99.90
64689;DHT22;62504;46.070;14.492;2022-08-21T03:42:10;19.50;99.90
64689;DHT22;62504;46.070;14.492;2022-08-21T03:44:37;19.40;99.90
64689;DHT22;62504;46.070;14.492;2022-08-21T03:47:03;19.50;99.90
64689;DHT22;62504;46.070;14.492;2022-08-21T03:49:29;19.40;99.90
64689;DHT22;62504;46.070;14.492;2022-08-21T03:51:55;19.40;99.90
64689;DHT22;62504;46.070;14.492;2022-08-21T03:54:21;19.40;99.90
64689;DHT22;62504;46.070;14.492;2022-08-21T03:56:47;19.40;99.90
64689;DHT22;62504;46.070;14.492;2022-08-21T03:59:13;19.40;99.90
64689;DHT22;62504;46.070;14.492;2022-08-21T04:01:39;19.50;99.90
64689;DHT22;62504;46.070;14.492;2022-08-21T04:04:05;19.40;99.90
64689;DHT22;62504;46.070;14.492;2022-08-21T04:06:31;19.40;99.90
64689;DHT22;62504;46.070;14.492;2022-08-21T04:08:57;19.40;99.90
64689;DHT22;62504;46.070;14.492;2022-08-21T04:11:22;19.30;99.90
64689;DHT22;62504;46.070;14.492;2022-08-21T04:13:48;19.30;99.90
64689;DHT22;62504;46.070;14.492;2022-08-21T04:16:14;19.30;99.90
64689;DHT22;62504;46.070;14.492;2022-08-21T04:18:40;19.30;99.90
64689;DHT22;62504;46.070;14.492;2022-08-21T04:21:07;19.30;99.90
64689;DHT22;62504;46.070;14.492;2022-08-21T04:23:35;19.40;99.90
64689;DHT22;62504;46.070;14.492;2022-08-21T04:26:01;19.30;99.90
64689;DHT22;62504;46.070;14.492;2022-08-21T04:28:27;19.40;99.90
64689;DHT22;62504;46.070;14.492;2022-08-21T04:30:54;19.30;99.90
64689;DHT22;62504;46.070;14.492;2022-08-21T04:33:21;19.20;99.90
64689;DHT22;62504;46.070;14.492;2022-08-21T04:35:47;19.20;99.90
64689;DHT22;62504;46.070;14.492;2022-08-21T04:38:13;19.20;99.90
64689;DHT22;62504;46.070;14.492;2022-08-21T04:40:38;19.20;99.90
64689;DHT22;62504;46.070;14.492;2022-08-21T04:43:06;19.30;99.90
64689;DHT22;62504;46.070;14.492;2022-08-21T04:45:38;19.30;99.90
64689;DHT22;62504;46.070;14.492;2022-08-21T04:48:06;19.30;99.90
64689;DHT22;62504;46.070;14.492;2022-08-21T04:50:43;19.30;99.90
64689;DHT22;62504;46.070;14.492;2022-08-21T04:53:16;19.30;99.90
64689;DHT22;62504;46.070;14.492;2022-08-21T04:55:43;19.40;99.90
64689;DHT22;62504;46.070;14.492;2022-08-21T04:58:11;19.40;99.90
64689;DHT22;62504;46.070;14.492;2022-08-21T05:00:40;19.40;99.90
64689;DHT22;62504;46.070;14.492;2022-08-21T05:03:08;19.30;99.90
64689;DHT22;62504;46.070;14.492;2022-08-21T05:05:34;19.40;99.90
64689;DHT22;62504;46.070;14.492;2022-08-21T05:08:02;19.40;99.90
64689;DHT22;62504;46.070;14.492;2022-08-21T05:10:28;19.40;99.90
64689;DHT22;62504;46.070;14.492;2022-08-21T05:12:56;19.40;99.90
64689;DHT22;62504;46.070;14.492;2022-08-21T05:15:22;19.50;99.90
64689;DHT22;62504;46.070;14.492;2022-08-21T05:17:48;19.50;99.90
64689;DHT22;62504;46.070;14.492;2022-08-21T05:20:16;19.60;99.90
64689;DHT22;62504;46.070;14.492;2022-08-21T05:22:42;19.60;99.90
64689;DHT22;62504;46.070;14.492;2022-08-21T05:25:09;19.60;99.90
64689;DHT22;62504;46.070;14.492;2022-08-21T05:27:35;19.20;99.90
64689;DHT22;62504;46.070;14.492;2022-08-21T05:30:01;18.90;99.90
64689;DHT22;62504;46.070;14.492;2022-08-21T05:32:26;18.90;99.90
64689;DHT22;62504;46.070;14.492;2022-08-21T05:34:54;18.90;99.90
64689;DHT22;62504;46.070;14.492;2022-08-21T05:37:20;18.80;99.90
64689;DHT22;62504;46.070;14.492;2022-08-21T05:39:46;18.50;99.90
64689;DHT22;62504;46.070;14.492;2022-08-21T05:42:12;18.50;99.90
64689;DHT22;62504;46.070;14.492;2022-08-21T05:44:37;18.60;99.90
64689;DHT22;62504;46.070;14.492;2022-08-21T05:47:05;19.00;99.90
64689;DHT22;62504;46.070;14.492;2022-08-21T05:49:32;19.20;99.90
64689;DHT22;62504;46.070;14.492;2022-08-21T05:51:57;19.10;99.90
64689;DHT22;62504;46.070;14.492;2022-08-21T05:54:23;19.00;99.90
64689;DHT22;62504;46.070;14.492;2022-08-21T05:56:49;19.10;99.90
64689;DHT22;62504;46.070;14.492;2022-08-21T05:59:14;19.30;99.90
64689;DHT22;62504;46.070;14.492;2022-08-21T06:01:40;19.50;99.90
64689;DHT22;62504;46.070;14.492;2022-08-21T06:04:06;19.60;99.90
64689;DHT22;62504;46.070;14.492;2022-08-21T06:06:33;19.80;99.90
64689;DHT22;62504;46.070;14.492;2022-08-21T06:08:58;19.80;99.90
64689;DHT22;62504;46.070;14.492;2022-08-21T06:11:24;19.80;99.90
64689;DHT22;62504;46.070;14.492;2022-08-21T06:13:49;19.80;99.90
64689;DHT22;62504;46.070;14.492;2022-08-21T06:16:16;19.90;99.90
64689;DHT22;62504;46.070;14.492;2022-08-21T06:18:43;19.90;99.90
64689;DHT22;62504;46.070;14.492;2022-08-21T06:21:09;20.00;99.90
64689;DHT22;62504;46.070;14.492;2022-08-21T06:23:35;20.10;99.90
64689;DHT22;62504;46.070;14.492;2022-08-21T06:26:02;20.10;99.90
64689;DHT22;62504;46.070;14.492;2022-08-21T06:28:28;20.20;99.90
64689;DHT22;62504;46.070;14.492;2022-08-21T06:30:54;20.10;99.90
64689;DHT22;62504;46.070;14.492;2022-08-21T06:33:20;20.10;99.90
64689;DHT22;62504;46.070;14.492;2022-08-21T06:35:45;20.20;99.90
64689;DHT22;62504;46.070;14.492;2022-08-21T06:38:11;20.10;99.90
64689;DHT22;62504;46.070;14.492;2022-08-21T06:40:37;20.10;99.90
64689;DHT22;62504;46.070;14.492;2022-08-21T06:43:11;20.20;99.90
64689;DHT22;62504;46.070;14.492;2022-08-21T06:45:37;20.20;99.90
64689;DHT22;62504;46.070;14.492;2022-08-21T06:48:03;19.80;99.90
64689;DHT22;62504;46.070;14.492;2022-08-21T06:50:29;19.60;99.90
64689;DHT22;62504;46.070;14.492;2022-08-21T06:53:04;19.90;99.90
64689;DHT22;62504;46.070;14.492;2022-08-21T06:55:31;20.10;99.90
64689;DHT22;62504;46.070;14.492;2022-08-21T06:57:57;20.30;99.90
64689;DHT22;62504;46.070;14.492;2022-08-21T07:00:22;20.30;99.90
64689;DHT22;62504;46.070;14.492;2022-08-21T07:02:48;20.00;99.90
64689;DHT22;62504;46.070;14.492;2022-08-21T07:05:14;20.20;99.90
64689;DHT22;62504;46.070;14.492;2022-08-21T07:07:40;20.10;99.90
64689;DHT22;62504;46.070;14.492;2022-08-21T07:10:06;19.80;99.90
64689;DHT22;62504;46.070;14.492;2022-08-21T07:12:31;20.00;99.90
64689;DHT22;62504;46.070;14.492;2022-08-21T07:14:57;19.90;99.90
64689;DHT22;62504;46.070;14.492;2022-08-21T07:17:23;19.80;99.90
64689;DHT22;62504;46.070;14.492;2022-08-21T07:19:49;20.00;99.90
64689;DHT22;62504;46.070;14.492;2022-08-21T07:22:18;20.30;99.90
64689;DHT22;62504;46.070;14.492;2022-08-21T07:24:45;20.20;99.90
64689;DHT22;62504;46.070;14.492;2022-08-21T07:27:12;20.50;99.90
64689;DHT22;62504;46.070;14.492;2022-08-21T07:29:37;20.90;99.90
64689;DHT22;62504;46.070;14.492;2022-08-21T07:32:04;21.00;99.90
64689;DHT22;62504;46.070;14.492;2022-08-21T07:34:30;21.20;99.90
64689;DHT22;62504;46.070;14.492;2022-08-21T07:36:57;21.30;99.90
64689;DHT22;62504;46.070;14.492;2022-08-21T07:39:22;21.40;99.90
64689;DHT22;62504;46.070;14.492;2022-08-21T07:41:48;21.10;99.90
64689;DHT22;62504;46.070;14.492;2022-08-21T07:44:14;20.80;99.90
64689;DHT22;62504;46.070;14.492;2022-08-21T07:46:39;20.80;99.90
64689;DHT22;62504;46.070;14.492;2022-08-21T07:49:05;21.30;99.90
64689;DHT22;62504;46.070;14.492;2022-08-21T07:51:32;21.60;99.90
64689;DHT22;62504;46.070;14.492;2022-08-21T07:53:59;21.60;99.90
64689;DHT22;62504;46.070;14.492;2022-08-21T07:56:26;21.30;99.90
64689;DHT22;62504;46.070;14.492;2022-08-21T07:58:52;21.50;99.90
64689;DHT22;62504;46.070;14.492;2022-08-21T08:01:18;21.60;99.90
64689;DHT22;62504;46.070;14.492;2022-08-21T08:03:44;21.40;99.90
64689;DHT22;62504;46.070;14.492;2022-08-21T08:06:10;22.00;99.90
64689;DHT22;62504;46.070;14.492;2022-08-21T08:08:41;21.60;99.90
64689;DHT22;62504;46.070;14.492;2022-08-21T08:11:08;21.70;99.90
64689;DHT22;62504;46.070;14.492;2022-08-21T08:13:48;21.90;99.90
64689;DHT22;62504;46.070;14.492;2022-08-21T08:16:14;22.10;99.90
64689;DHT22;62504;46.070;14.492;2022-08-21T08:18:40;22.30;99.90
64689;DHT22;62504;46.070;14.492;2022-08-21T08:21:08;22.40;99.90
64689;DHT22;62504;46.070;14.492;2022-08-21T08:23:34;22.60;99.90
64689;DHT22;62504;46.070;14.492;2022-08-21T08:26:01;22.80;99.90
64689;DHT22;62504;46.070;14.492;2022-08-21T08:28:30;22.60;99.90
64689;DHT22;62504;46.070;14.492;2022-08-21T08:30:57;22.80;99.90
64689;DHT22;62504;46.070;14.492;2022-08-21T08:33:23;22.90;99.90
64689;DHT22;62504;46.070;14.492;2022-08-21T08:35:50;22.90;99.90
64689;DHT22;62504;46.070;14.492;2022-08-21T08:38:17;23.00;99.90
64689;DHT22;62504;46.070;14.492;2022-08-21T08:43:21;23.00;99.90
64689;DHT22;62504;46.070;14.492;2022-08-21T08:45:50;23.00;99.90
64689;DHT22;62504;46.070;14.492;2022-08-21T08:48:48;23.10;99.90
64689;DHT22;62504;46.070;14.492;2022-08-21T08:51:42;23.00;99.90
64689;DHT22;62504;46.070;14.492;2022-08-21T08:54:13;22.70;99.90
64689;DHT22;62504;46.070;14.492;2022-08-21T08:56:41;22.80;99.90
64689;DHT22;62504;46.070;14.492;2022-08-21T08:59:19;22.90;99.90
64689;DHT22;62504;46.070;14.492;2022-08-21T09:01:46;22.90;99.90
64689;DHT22;62504;46.070;14.492;2022-08-21T09:04:12;22.80;99.90
64689;DHT22;62504;46.070;14.492;2022-08-21T09:09:46;22.80;99.90
64689;DHT22;62504;46.070;14.492;2022-08-21T09:28:42;25.60;99.90
64689;DHT22;62504;46.070;14.492;2022-08-21T09:31:35;25.30;99.90
64689;DHT22;62504;46.070;14.492;2022-08-21T09:34:09;24.90;99.90
64689;DHT22;62504;46.070;14.492;2022-08-21T09:36:43;24.90;99.90
64689;DHT22;62504;46.070;14.492;2022-08-21T09:39:12;25.00;99.90
64689;DHT22;62504;46.070;14.492;2022-08-21T09:41:39;24.90;99.90
64689;DHT22;62504;46.070;14.492;2022-08-21T09:44:08;24.90;99.90
64689;DHT22;62504;46.070;14.492;2022-08-21T09:46:34;25.20;99.90
64689;DHT22;62504;46.070;14.492;2022-08-21T09:49:03;25.40;99.90
64689;DHT22;62504;46.070;14.492;2022-08-21T09:51:34;25.60;99.90
64689;DHT22;62504;46.070;14.492;2022-08-21T09:57:00;25.70;99.90
64689;DHT22;62504;46.070;14.492;2022-08-21T09:59:46;25.40;99.90
64689;DHT22;62504;46.070;14.492;2022-08-21T10:02:33;25.20;99.90
64689;DHT22;62504;46.070;14.492;2022-08-21T10:05:14;25.50;99.90
64689;DHT22;62504;46.070;14.492;2022-08-21T10:07:40;25.60;99.90
64689;DHT22;62504;46.070;14.492;2022-08-21T10:10:19;25.70;99.90
64689;DHT22;62504;46.070;14.492;2022-08-21T10:18:35;26.00;99.90
64689;DHT22;62504;46.070;14.492;2022-08-21T10:21:05;26.00;99.90
64689;DHT22;62504;46.070;14.492;2022-08-21T10:26:56;26.30;99.90
64689;DHT22;62504;46.070;14.492;2022-08-21T10:42:45;25.90;99.90
64689;DHT22;62504;46.070;14.492;2022-08-21T10:47:55;26.10;99.90
64689;DHT22;62504;46.070;14.492;2022-08-21T10:53:15;25.90;99.90
64689;DHT22;62504;46.070;14.492;2022-08-21T10:55:47;26.00;99.90
64689;DHT22;62504;46.070;14.492;2022-08-21T10:58:43;26.10;99.90
64689;DHT22;62504;46.070;14.492;2022-08-21T11:01:15;26.20;99.90
64689;DHT22;62504;46.070;14.492;2022-08-21T11:03:50;26.10;99.90
64689;DHT22;62504;46.070;14.492;2022-08-21T11:08:50;26.40;99.90
64689;DHT22;62504;46.070;14.492;2022-08-21T11:11:27;26.70;99.90
64689;DHT22;62504;46.070;14.492;2022-08-21T11:13:59;26.70;99.80
64689;DHT22;62504;46.070;14.492;2022-08-21T11:16:42;26.90;99.20
64689;DHT22;62504;46.070;14.492;2022-08-21T11:29:29;26.70;97.30
64689;DHT22;62504;46.070;14.492;2022-08-21T11:40:13;26.70;99.00
64689;DHT22;62504;46.070;14.492;2022-08-21T11:45:31;27.00;94.50
64689;DHT22;62504;46.070;14.492;2022-08-21T11:48:13;27.10;94.50
64689;DHT22;62504;46.070;14.492;2022-08-21T11:50:43;27.00;93.70
64689;DHT22;62504;46.070;14.492;2022-08-21T11:56:12;26.90;93.80
64689;DHT22;62504;46.070;14.492;2022-08-21T11:58:51;26.90;93.70
64689;DHT22;62504;46.070;14.492;2022-08-21T12:01:21;27.00;94.60
64689;DHT22;62504;46.070;14.492;2022-08-21T12:04:07;27.20;93.80
64689;DHT22;62504;46.070;14.492;2022-08-21T12:06:35;27.00;92.90
64689;DHT22;62504;46.070;14.492;2022-08-21T12:09:10;26.90;93.00
64689;DHT22;62504;46.070;14.492;2022-08-21T12:11:59;27.00;93.30
64689;DHT22;62504;46.070;14.492;2022-08-21T12:14:42;27.00;92.90
64689;DHT22;62504;46.070;14.492;2022-08-21T12:17:16;26.90;94.10
64689;DHT22;62504;46.070;14.492;2022-08-21T12:19:43;27.00;92.30
64689;DHT22;62504;46.070;14.492;2022-08-21T12:22:13;26.80;92.10
64689;DHT22;62504;46.070;14.492;2022-08-21T12:24:44;26.70;92.10
64689;DHT22;62504;46.070;14.492;2022-08-21T12:29:48;26.90;92.90
64689;DHT22;62504;46.070;14.492;2022-08-21T12:40:25;26.50;91.70
64689;DHT22;62504;46.070;14.492;2022-08-21T12:42:56;26.40;92.60
64689;DHT22;62504;46.070;14.492;2022-08-21T12:45:36;26.50;92.50
64689;DHT22;62504;46.070;14.492;2022-08-21T12:50:49;26.40;93.30
64689;DHT22;62504;46.070;14.492;2022-08-21T12:56:22;26.10;91.50
64689;DHT22;62504;46.070;14.492;2022-08-21T12:58:51;26.00;91.60
64689;DHT22;62504;46.070;14.492;2022-08-21T13:03:52;26.10;92.30
64689;DHT22;62504;46.070;14.492;2022-08-21T13:06:20;26.10;92.20
64689;DHT22;62504;46.070;14.492;2022-08-21T13:08:47;26.20;92.10
64689;DHT22;62504;46.070;14.492;2022-08-21T13:11:16;26.20;91.90
64689;DHT22;62504;46.070;14.492;2022-08-21T13:13:43;26.10;92.30
64689;DHT22;62504;46.070;14.492;2022-08-21T13:16:09;26.20;92.90
64689;DHT22;62504;46.070;14.492;2022-08-21T13:18:39;26.10;92.00
64689;DHT22;62504;46.070;14.492;2022-08-21T13:21:16;26.10;92.60
64689;DHT22;62504;46.070;14.492;2022-08-21T13:23:42;25.90;92.20
64689;DHT22;62504;46.070;14.492;2022-08-21T13:26:21;25.90;92.90
64689;DHT22;62504;46.070;14.492;2022-08-21T13:28:47;25.80;92.20
64689;DHT22;62504;46.070;14.492;2022-08-21T13:31:24;25.80;92.80
64689;DHT22;62504;46.070;14.492;2022-08-21T13:33:50;25.80;93.40
64689;DHT22;62504;46.070;14.492;2022-08-21T13:36:37;25.70;91.90
64689;DHT22;62504;46.070;14.492;2022-08-21T13:39:04;25.60;92.50
64689;DHT22;62504;46.070;14.492;2022-08-21T13:41:35;25.60;92.60
64689;DHT22;62504;46.070;14.492;2022-08-21T13:44:40;25.60;92.70
64689;DHT22;62504;46.070;14.492;2022-08-21T13:47:07;25.60;93.10
64689;DHT22;62504;46.070;14.492;2022-08-21T13:49:40;25.60;92.90
64689;DHT22;62504;46.070;14.492;2022-08-21T13:52:25;25.60;93.00
64689;DHT22;62504;46.070;14.492;2022-08-21T13:55:09;25.60;92.30
64689;DHT22;62504;46.070;14.492;2022-08-21T13:57:36;25.50;92.20
64689;DHT22;62504;46.070;14.492;2022-08-21T14:00:19;25.50;92.60
64689;DHT22;62504;46.070;14.492;2022-08-21T14:02:47;25.50;92.90
64689;DHT22;62504;46.070;14.492;2022-08-21T14:05:20;25.40;92.50
64689;DHT22;62504;46.070;14.492;2022-08-21T14:07:46;25.40;92.80
64689;DHT22;62504;46.070;14.492;2022-08-21T14:10:16;25.50;93.30
64689;DHT22;62504;46.070;14.492;2022-08-21T14:12:50;25.40;93.20
64689;DHT22;62504;46.070;14.492;2022-08-21T14:15:18;25.40;93.00
64689;DHT22;62504;46.070;14.492;2022-08-21T14:17:50;25.50;93.10
64689;DHT22;62504;46.070;14.492;2022-08-21T14:20:46;25.40;93.50
64689;DHT22;62504;46.070;14.492;2022-08-21T14:23:12;25.40;93.60
64689;DHT22;62504;46.070;14.492;2022-08-21T14:25:48;25.20;93.10
64689;DHT22;62504;46.070;14.492;2022-08-21T14:28:30;25.00;93.70
64689;DHT22;62504;46.070;14.492;2022-08-21T14:30:58;24.90;94.70
64689;DHT22;62504;46.070;14.492;2022-08-21T14:33:30;25.00;94.60
64689;DHT22;62504;46.070;14.492;2022-08-21T14:35:58;24.90;93.80
64689;DHT22;62504;46.070;14.492;2022-08-21T14:38:37;24.90;93.90
64689;DHT22;62504;46.070;14.492;2022-08-21T14:41:19;24.70;94.20
64689;DHT22;62504;46.070;14.492;2022-08-21T14:43:46;24.70;94.70
64689;DHT22;62504;46.070;14.492;2022-08-21T14:46:13;24.60;94.60
64689;DHT22;62504;46.070;14.492;2022-08-21T14:48:54;24.70;95.00
64689;DHT22;62504;46.070;14.492;2022-08-21T14:51:30;24.60;95.30
64689;DHT22;62504;46.070;14.492;2022-08-21T14:53:56;24.60;96.10
64689;DHT22;62504;46.070;14.492;2022-08-21T14:56:21;24.60;96.20
64689;DHT22;62504;46.070;14.492;2022-08-21T14:58:49;24.50;96.00
64689;DHT22;62504;46.070;14.492;2022-08-21T15:01:17;24.50;96.30
64689;DHT22;62504;46.070;14.492;2022-08-21T15:03:46;24.50;96.20
64689;DHT22;62504;46.070;14.492;2022-08-21T15:06:15;24.50;96.50
64689;DHT22;62504;46.070;14.492;2022-08-21T15:08:42;24.50;96.70
64689;DHT22;62504;46.070;14.492;2022-08-21T15:11:11;24.60;96.50
64689;DHT22;62504;46.070;14.492;2022-08-21T15:13:38;24.70;97.00
64689;DHT22;62504;46.070;14.492;2022-08-21T15:16:04;24.80;96.40
64689;DHT22;62504;46.070;14.492;2022-08-21T15:18:30;24.70;95.50
64689;DHT22;62504;46.070;14.492;2022-08-21T15:20:56;24.60;95.50
64689;DHT22;62504;46.070;14.492;2022-08-21T15:23:22;24.70;95.30
64689;DHT22;62504;46.070;14.492;2022-08-21T15:25:48;24.70;95.70
64689;DHT22;62504;46.070;14.492;2022-08-21T15:28:15;24.70;95.90
64689;DHT22;62504;46.070;14.492;2022-08-21T15:30:42;24.70;95.70
64689;DHT22;62504;46.070;14.492;2022-08-21T15:33:08;24.60;96.10
64689;DHT22;62504;46.070;14.492;2022-08-21T15:35:35;24.60;95.70
64689;DHT22;62504;46.070;14.492;2022-08-21T15:38:01;24.60;95.40
64689;DHT22;62504;46.070;14.492;2022-08-21T15:40:27;24.50;95.50
64689;DHT22;62504;46.070;14.492;2022-08-21T15:42:57;24.60;95.70
64689;DHT22;62504;46.070;14.492;2022-08-21T15:45:24;24.80;95.70
64689;DHT22;62504;46.070;14.492;2022-08-21T15:47:51;24.80;95.30
64689;DHT22;62504;46.070;14.492;2022-08-21T15:50:17;24.70;94.70
64689;DHT22;62504;46.070;14.492;2022-08-21T15:52:42;24.70;94.80
64689;DHT22;62504;46.070;14.492;2022-08-21T15:55:09;24.80;95.00
64689;DHT22;62504;46.070;14.492;2022-08-21T15:57:37;24.80;94.90
64689;DHT22;62504;46.070;14.492;2022-08-21T16:00:07;24.60;94.90
64689;DHT22;62504;46.070;14.492;2022-08-21T16:02:39;24.70;95.00
64689;DHT22;62504;46.070;14.492;2022-08-21T16:05:05;24.60;94.80
64689;DHT22;62504;46.070;14.492;2022-08-21T16:07:31;24.70;94.70
64689;DHT22;62504;46.070;14.492;2022-08-21T16:09:57;24.70;94.70
64689;DHT22;62504;46.070;14.492;2022-08-21T16:12:28;24.60;95.10
64689;DHT22;62504;46.070;14.492;2022-08-21T16:14:56;24.70;95.30
64689;DHT22;62504;46.070;14.492;2022-08-21T16:17:28;24.60;94.40
64689;DHT22;62504;46.070;14.492;2022-08-21T16:19:55;24.60;94.70
64689;DHT22;62504;46.070;14.492;2022-08-21T16:22:21;24.60;94.80
64689;DHT22;62504;46.070;14.492;2022-08-21T16:24:47;24.70;95.00
64689;DHT22;62504;46.070;14.492;2022-08-21T16:27:12;24.80;95.30
64689;DHT22;62504;46.070;14.492;2022-08-21T16:29:39;24.70;94.60
64689;DHT22;62504;46.070;14.492;2022-08-21T16:32:05;24.60;94.50
64689;DHT22;62504;46.070;14.492;2022-08-21T16:34:31;24.60;94.70
64689;DHT22;62504;46.070;14.492;2022-08-21T16:36:57;24.60;95.10
64689;DHT22;62504;46.070;14.492;2022-08-21T16:39:23;24.70;94.70
64689;DHT22;62504;46.070;14.492;2022-08-21T16:41:48;24.50;94.50
64689;DHT22;62504;46.070;14.492;2022-08-21T16:44:16;24.60;94.70
64689;DHT22;62504;46.070;14.492;2022-08-21T16:46:42;24.60;95.10
64689;DHT22;62504;46.070;14.492;2022-08-21T16:49:08;24.60;95.20
64689;DHT22;62504;46.070;14.492;2022-08-21T16:51:37;24.50;95.40
64689;DHT22;62504;46.070;14.492;2022-08-21T16:54:03;24.40;95.60
64689;DHT22;62504;46.070;14.492;2022-08-21T16:56:29;24.40;96.00
64689;DHT22;62504;46.070;14.492;2022-08-21T16:58:56;24.40;95.40
64689;DHT22;62504;46.070;14.492;2022-08-21T17:01:27;24.40;96.10
64689;DHT22;62504;46.070;14.492;2022-08-21T17:03:54;24.40;95.80